首页
METAR-TAF:

METAR-TAF

机场 :

福州长乐国际机场

福州, 中华人民共和国

纬度: 26-05N, 经度: 119-17E, 海拔: 85米

当前天气观测

该预报发布于18分钟前的05:00 UTC
风速12节,风向东北
温度 19°C
湿度 73%
气压 1018 hPa
能见度10公里或以上
少量云层高于2000英尺
阴天层高于2600英尺

METAR: ZSFZ 140500Z 05006MPS 9999 FEW020 OVC026 19/14 Q1018 NOSIG

时间: 13:18 (05:18 UTC)

预报

该预报发布于10小时和10分钟前的19:08 UTC
预报有效从14日的 00点(UTC)到 14日的 24点(UTC)
风速8节,风向东北
能見度: 7000
多云层高于2000英尺

TAF: ZSFZ 131908Z 1400/1424 04004MPS 7000 BKN020 TX21/1406Z TN16/1421Z

超过4000个机场的气象观测和天气预报(METAR&TAF报告)。

可查询的气象台以黄色和红色小点在地图上表示。

将鼠标移到小点上方,可查看气象台名称。

然后点击查看天气观测和预报。

如需切换地图:点击带黑十字的绿色按钮放大地图;点击带横线的绿色按钮缩小地图;或者点击绿色箭头查看邻近地区的地图。


METAR-TAF: